sensor_id;sensor_type;location;lat;lon;timestamp;pressure;altitude;pressure_sealevel;temperature;humidity
31538;BME280;18147;51.952;6.146;2022-11-20T00:02:18;101314.47;;;-4.58;100.00
31538;BME280;18147;51.952;6.146;2022-11-20T00:04:44;101317.13;;;-4.51;100.00
31538;BME280;18147;51.952;6.146;2022-11-20T00:07:09;101312.78;;;-4.50;100.00
31538;BME280;18147;51.952;6.146;2022-11-20T00:09:35;101318.91;;;-4.45;100.00
31538;BME280;18147;51.952;6.146;2022-11-20T00:12:00;101311.94;;;-4.48;100.00
31538;BME280;18147;51.952;6.146;2022-11-20T00:14:25;101316.25;;;-4.56;100.00
31538;BME280;18147;51.952;6.146;2022-11-20T00:16:51;101311.88;;;-4.58;100.00
31538;BME280;18147;51.952;6.146;2022-11-20T00:19:16;101316.16;;;-4.66;100.00
31538;BME280;18147;51.952;6.146;2022-11-20T00:21:42;101304.81;;;-4.79;100.00
31538;BME280;18147;51.952;6.146;2022-11-20T00:24:08;101312.59;;;-4.81;100.00
31538;BME280;18147;51.952;6.146;2022-11-20T00:26:35;101310.94;;;-4.71;100.00
31538;BME280;18147;51.952;6.146;2022-11-20T00:29:01;101299.56;;;-4.82;100.00
31538;BME280;18147;51.952;6.146;2022-11-20T00:31:28;101306.31;;;-5.07;100.00
31538;BME280;18147;51.952;6.146;2022-11-20T00:33:53;101290.50;;;-5.33;100.00
31538;BME280;18147;51.952;6.146;2022-11-20T00:36:21;101286.47;;;-5.01;100.00
31538;BME280;18147;51.952;6.146;2022-11-20T00:38:50;101288.38;;;-4.75;100.00
31538;BME280;18147;51.952;6.146;2022-11-20T00:41:16;101291.09;;;-4.54;100.00
31538;BME280;18147;51.952;6.146;2022-11-20T00:43:41;101291.06;;;-4.58;100.00
31538;BME280;18147;51.952;6.146;2022-11-20T00:48:37;101281.41;;;-4.79;100.00
31538;BME280;18147;51.952;6.146;2022-11-20T00:51:02;101282.00;;;-5.17;100.00
31538;BME280;18147;51.952;6.146;2022-11-20T00:53:28;101285.47;;;-5.16;100.00
31538;BME280;18147;51.952;6.146;2022-11-20T00:56:01;101284.66;;;-5.11;100.00
31538;BME280;18147;51.952;6.146;2022-11-20T00:58:36;101285.41;;;-5.24;100.00
31538;BME280;18147;51.952;6.146;2022-11-20T01:01:10;101293.31;;;-5.07;100.00
31538;BME280;18147;51.952;6.146;2022-11-20T01:03:42;101292.53;;;-5.02;100.00
31538;BME280;18147;51.952;6.146;2022-11-20T01:06:19;101292.44;;;-5.11;100.00
31538;BME280;18147;51.952;6.146;2022-11-20T01:08:46;101289.03;;;-5.02;100.00
31538;BME280;18147;51.952;6.146;2022-11-20T01:11:15;101294.09;;;-5.21;100.00
31538;BME280;18147;51.952;6.146;2022-11-20T01:13:41;101298.38;;;-5.26;100.00
31538;BME280;18147;51.952;6.146;2022-11-20T01:16:10;101284.47;;;-5.31;100.00
31538;BME280;18147;51.952;6.146;2022-11-20T01:18:38;101280.88;;;-5.47;100.00
31538;BME280;18147;51.952;6.146;2022-11-20T01:21:10;101284.56;;;-5.22;100.00
31538;BME280;18147;51.952;6.146;2022-11-20T01:23:38;101285.47;;;-5.16;100.00
31538;BME280;18147;51.952;6.146;2022-11-20T01:26:08;101283.81;;;-5.07;100.00
31538;BME280;18147;51.952;6.146;2022-11-20T01:28:34;101285.41;;;-5.23;100.00
31538;BME280;18147;51.952;6.146;2022-11-20T01:31:00;101283.53;;;-5.37;100.00
31538;BME280;18147;51.952;6.146;2022-11-20T01:33:26;101272.34;;;-5.32;100.00
31538;BME280;18147;51.952;6.146;2022-11-20T01:35:52;101278.38;;;-5.33;100.00
31538;BME280;18147;51.952;6.146;2022-11-20T01:38:18;101271.50;;;-5.28;100.00
31538;BME280;18147;51.952;6.146;2022-11-20T01:40:53;101270.66;;;-5.25;100.00
31538;BME280;18147;51.952;6.146;2022-11-20T01:43:20;101273.28;;;-5.24;100.00
31538;BME280;18147;51.952;6.146;2022-11-20T01:49:10;101270.53;;;-5.40;100.00
31538;BME280;18147;51.952;6.146;2022-11-20T01:51:50;101264.53;;;-5.33;100.00
31538;BME280;18147;51.952;6.146;2022-11-20T01:54:27;101265.47;;;-5.27;100.00
31538;BME280;18147;51.952;6.146;2022-11-20T01:56:56;101265.50;;;-5.22;100.00
31538;BME280;18147;51.952;6.146;2022-11-20T01:59:24;101255.03;;;-5.28;100.00
31538;BME280;18147;51.952;6.146;2022-11-20T02:01:52;101253.31;;;-5.28;100.00
31538;BME280;18147;51.952;6.146;2022-11-20T02:04:18;101247.19;;;-5.36;100.00
31538;BME280;18147;51.952;6.146;2022-11-20T02:06:48;101250.75;;;-5.23;100.00
31538;BME280;18147;51.952;6.146;2022-11-20T02:09:15;101255.06;;;-5.25;100.00
31538;BME280;18147;51.952;6.146;2022-11-20T02:11:41;101250.78;;;-5.22;100.00
31538;BME280;18147;51.952;6.146;2022-11-20T02:14:07;101252.47;;;-5.24;100.00
31538;BME280;18147;51.952;6.146;2022-11-20T02:16:51;101245.63;;;-5.15;100.00
31538;BME280;18147;51.952;6.146;2022-11-20T02:19:28;101244.75;;;-5.14;100.00
31538;BME280;18147;51.952;6.146;2022-11-20T02:24:24;101243.97;;;-5.04;100.00
31538;BME280;18147;51.952;6.146;2022-11-20T02:26:53;101238.81;;;-4.97;100.00
31538;BME280;18147;51.952;6.146;2022-11-20T02:29:26;101239.72;;;-4.88;100.00
31538;BME280;18147;51.952;6.146;2022-11-20T02:31:54;101238.88;;;-4.83;100.00
31538;BME280;18147;51.952;6.146;2022-11-20T02:34:20;101234.53;;;-4.84;100.00
31538;BME280;18147;51.952;6.146;2022-11-20T02:36:46;101237.94;;;-4.99;100.00
31538;BME280;18147;51.952;6.146;2022-11-20T02:39:15;101239.63;;;-5.07;100.00
31538;BME280;18147;51.952;6.146;2022-11-20T02:41:42;101241.28;;;-5.15;100.00
31538;BME280;18147;51.952;6.146;2022-11-20T02:44:10;101241.25;;;-5.19;100.00
31538;BME280;18147;51.952;6.146;2022-11-20T02:46:35;101240.34;;;-5.26;100.00
31538;BME280;18147;51.952;6.146;2022-11-20T02:49:03;101242.91;;;-5.28;100.00
31538;BME280;18147;51.952;6.146;2022-11-20T02:51:29;101242.00;;;-5.33;100.00
31538;BME280;18147;51.952;6.146;2022-11-20T02:53:55;101231.66;;;-5.30;100.00
31538;BME280;18147;51.952;6.146;2022-11-20T02:56:20;101241.13;;;-5.36;100.00
31538;BME280;18147;51.952;6.146;2022-11-20T02:58:46;101240.31;;;-5.28;100.00
31538;BME280;18147;51.952;6.146;2022-11-20T03:01:11;101239.44;;;-5.30;100.00
31538;BME280;18147;51.952;6.146;2022-11-20T03:03:37;101236.00;;;-5.26;100.00
31538;BME280;18147;51.952;6.146;2022-11-20T03:06:03;101231.66;;;-5.28;100.00
31538;BME280;18147;51.952;6.146;2022-11-20T03:08:29;101231.63;;;-5.33;100.00
31538;BME280;18147;51.952;6.146;2022-11-20T03:10:54;101236.59;;;-5.62;100.00
31538;BME280;18147;51.952;6.146;2022-11-20T03:13:19;101233.75;;;-5.86;100.00
31538;BME280;18147;51.952;6.146;2022-11-20T03:15:45;101230.50;;;-5.67;100.00
31538;BME280;18147;51.952;6.146;2022-11-20T03:18:10;101229.72;;;-5.54;100.00
31538;BME280;18147;51.952;6.146;2022-11-20T03:20:36;101230.53;;;-5.59;100.00
31538;BME280;18147;51.952;6.146;2022-11-20T03:23:01;101228.72;;;-5.68;100.00
31538;BME280;18147;51.952;6.146;2022-11-20T03:25:27;101217.47;;;-5.70;100.00
31538;BME280;18147;51.952;6.146;2022-11-20T03:27:53;101209.72;;;-5.67;100.00
31538;BME280;18147;51.952;6.146;2022-11-20T03:30:19;101211.34;;;-5.75;100.00
31538;BME280;18147;51.952;6.146;2022-11-20T03:32:44;101198.28;;;-5.87;100.00
31538;BME280;18147;51.952;6.146;2022-11-20T03:35:10;101194.75;;;-5.92;100.00
31538;BME280;18147;51.952;6.146;2022-11-20T03:37:35;101203.59;;;-5.72;100.00
31538;BME280;18147;51.952;6.146;2022-11-20T03:40:01;101193.31;;;-5.60;100.00
31538;BME280;18147;51.952;6.146;2022-11-20T03:42:26;101197.63;;;-5.60;100.00
31538;BME280;18147;51.952;6.146;2022-11-20T03:45:10;101193.34;;;-5.57;100.00
31538;BME280;18147;51.952;6.146;2022-11-20T03:47:35;101200.22;;;-5.59;100.00
31538;BME280;18147;51.952;6.146;2022-11-20T03:50:01;101206.34;;;-5.55;100.00
31538;BME280;18147;51.952;6.146;2022-11-20T03:52:26;101204.56;;;-5.59;100.00
31538;BME280;18147;51.952;6.146;2022-11-20T03:54:52;101205.34;;;-5.68;100.00
31538;BME280;18147;51.952;6.146;2022-11-20T03:57:17;101204.50;;;-5.65;100.00
31538;BME280;18147;51.952;6.146;2022-11-20T03:59:42;101199.38;;;-5.59;100.00
31538;BME280;18147;51.952;6.146;2022-11-20T04:02:08;101200.16;;;-5.68;100.00
31538;BME280;18147;51.952;6.146;2022-11-20T04:04:33;101201.06;;;-5.66;100.00
31538;BME280;18147;51.952;6.146;2022-11-20T04:06:59;101191.53;;;-5.65;100.00
31538;BME280;18147;51.952;6.146;2022-11-20T04:09:24;101198.38;;;-5.77;100.00
31538;BME280;18147;51.952;6.146;2022-11-20T04:11:49;101191.41;;;-5.79;100.00
31538;BME280;18147;51.952;6.146;2022-11-20T04:14:15;101195.63;;;-5.90;100.00
31538;BME280;18147;51.952;6.146;2022-11-20T04:16:42;101198.28;;;-5.87;100.00
31538;BME280;18147;51.952;6.146;2022-11-20T04:19:13;101195.44;;;-6.13;100.00
31538;BME280;18147;51.952;6.146;2022-11-20T04:21:39;101198.16;;;-6.00;100.00
31538;BME280;18147;51.952;6.146;2022-11-20T04:24:05;101204.16;;;-6.07;100.00
31538;BME280;18147;51.952;6.146;2022-11-20T04:26:31;101197.22;;;-6.09;100.00
31538;BME280;18147;51.952;6.146;2022-11-20T04:28:57;101192.94;;;-6.06;100.00
31538;BME280;18147;51.952;6.146;2022-11-20T04:31:25;101186.00;;;-6.04;100.00
31538;BME280;18147;51.952;6.146;2022-11-20T04:33:51;101187.84;;;-5.95;100.00
31538;BME280;18147;51.952;6.146;2022-11-20T04:36:21;101178.88;;;-6.26;100.00
31538;BME280;18147;51.952;6.146;2022-11-20T04:38:54;101183.31;;;-6.17;100.00
31538;BME280;18147;51.952;6.146;2022-11-20T04:41:29;101176.34;;;-6.18;100.00
31538;BME280;18147;51.952;6.146;2022-11-20T04:43:57;101169.31;;;-6.30;100.00
31538;BME280;18147;51.952;6.146;2022-11-20T04:46:25;101176.25;;;-6.28;100.00
31538;BME280;18147;51.952;6.146;2022-11-20T04:48:51;101173.63;;;-6.31;100.00
31538;BME280;18147;51.952;6.146;2022-11-20T04:51:17;101176.72;;;-6.64;100.00
31538;BME280;18147;51.952;6.146;2022-11-20T04:53:43;101169.22;;;-6.39;100.00
31538;BME280;18147;51.952;6.146;2022-11-20T04:56:10;101172.81;;;-6.27;100.00
31538;BME280;18147;51.952;6.146;2022-11-20T04:58:36;101166.78;;;-6.27;100.00
31538;BME280;18147;51.952;6.146;2022-11-20T05:03:33;101172.88;;;-6.22;100.00
31538;BME280;18147;51.952;6.146;2022-11-20T05:06:05;101167.75;;;-6.13;100.00
31538;BME280;18147;51.952;6.146;2022-11-20T05:08:31;101168.66;;;-6.11;100.00
31538;BME280;18147;51.952;6.146;2022-11-20T05:11:11;101171.19;;;-6.17;100.00
31538;BME280;18147;51.952;6.146;2022-11-20T05:13:36;101177.31;;;-6.09;100.00
31538;BME280;18147;51.952;6.146;2022-11-20T05:16:07;101174.78;;;-6.03;100.00
31538;BME280;18147;51.952;6.146;2022-11-20T05:18:33;101164.31;;;-6.12;100.00
31538;BME280;18147;51.952;6.146;2022-11-20T05:20:59;101170.34;;;-6.14;100.00
31538;BME280;18147;51.952;6.146;2022-11-20T05:23:26;101163.81;;;-6.59;100.00
31538;BME280;18147;51.952;6.146;2022-11-20T05:25:53;101162.94;;;-6.61;100.00
31538;BME280;18147;51.952;6.146;2022-11-20T05:28:19;101160.50;;;-6.47;100.00
31538;BME280;18147;51.952;6.146;2022-11-20T05:30:44;101149.81;;;-6.73;100.00
31538;BME280;18147;51.952;6.146;2022-11-20T05:33:10;101156.97;;;-6.53;100.00
31538;BME280;18147;51.952;6.146;2022-11-20T05:35:35;101153.53;;;-6.50;100.00
31538;BME280;18147;51.952;6.146;2022-11-20T05:38:00;101160.78;;;-6.94;100.00
31538;BME280;18147;51.952;6.146;2022-11-20T05:40:26;101152.25;;;-6.87;100.00
31538;BME280;18147;51.952;6.146;2022-11-20T05:42:51;101154.19;;;-6.68;100.00
31538;BME280;18147;51.952;6.146;2022-11-20T05:45:17;101153.31;;;-6.70;100.00
31538;BME280;18147;51.952;6.146;2022-11-20T05:47:42;101154.09;;;-6.77;100.00
31538;BME280;18147;51.952;6.146;2022-11-20T05:50:07;101155.34;;;-6.43;100.00
31538;BME280;18147;51.952;6.146;2022-11-20T05:52:33;101155.38;;;-6.38;100.00
31538;BME280;18147;51.952;6.146;2022-11-20T05:54:58;101165.75;;;-6.40;100.00
31538;BME280;18147;51.952;6.146;2022-11-20T05:57:24;101166.72;;;-6.32;100.00
31538;BME280;18147;51.952;6.146;2022-11-20T05:59:49;101158.78;;;-6.47;100.00
31538;BME280;18147;51.952;6.146;2022-11-20T06:02:14;101159.09;;;-6.92;100.00
31538;BME280;18147;51.952;6.146;2022-11-20T06:04:40;101154.16;;;-6.71;100.00
31538;BME280;18147;51.952;6.146;2022-11-20T06:07:05;101151.69;;;-6.59;100.00
31538;BME280;18147;51.952;6.146;2022-11-20T06:09:31;101161.19;;;-6.62;100.00
31538;BME280;18147;51.952;6.146;2022-11-20T06:11:57;101154.34;;;-6.56;100.00
31538;BME280;18147;51.952;6.146;2022-11-20T06:14:23;101157.84;;;-6.52;100.00
31538;BME280;18147;51.952;6.146;2022-11-20T06:16:48;101162.22;;;-6.46;100.00
31538;BME280;18147;51.952;6.146;2022-11-20T06:19:13;101167.41;;;-6.46;100.00
31538;BME280;18147;51.952;6.146;2022-11-20T06:21:40;101166.63;;;-6.41;100.00
31538;BME280;18147;51.952;6.146;2022-11-20T06:24:05;101166.63;;;-6.38;100.00
31538;BME280;18147;51.952;6.146;2022-11-20T06:26:31;101163.03;;;-6.50;100.00
31538;BME280;18147;51.952;6.146;2022-11-20T06:28:56;101176.81;;;-6.55;100.00
31538;BME280;18147;51.952;6.146;2022-11-20T06:31:24;101175.91;;;-6.61;100.00
31538;BME280;18147;51.952;6.146;2022-11-20T06:33:53;101171.66;;;-6.53;100.00
31538;BME280;18147;51.952;6.146;2022-11-20T06:36:20;101175.94;;;-6.57;100.00
31538;BME280;18147;51.952;6.146;2022-11-20T06:38:47;101175.03;;;-6.59;100.00
31538;BME280;18147;51.952;6.146;2022-11-20T06:41:16;101174.84;;;-6.75;100.00
31538;BME280;18147;51.952;6.146;2022-11-20T06:43:42;101179.16;;;-6.78;100.00
31538;BME280;18147;51.952;6.146;2022-11-20T06:46:10;101178.34;;;-6.72;100.00
31538;BME280;18147;51.952;6.146;2022-11-20T06:48:35;101180.16;;;-6.66;100.00
31538;BME280;18147;51.952;6.146;2022-11-20T06:51:03;101180.13;;;-6.68;100.00
31538;BME280;18147;51.952;6.146;2022-11-20T06:53:29;101184.56;;;-6.59;100.00
31538;BME280;18147;51.952;6.146;2022-11-20T06:55:56;101175.84;;;-6.63;100.00
31538;BME280;18147;51.952;6.146;2022-11-20T06:58:23;101182.75;;;-6.65;100.00
31538;BME280;18147;51.952;6.146;2022-11-20T07:00:48;101182.03;;;-6.53;100.00
31538;BME280;18147;51.952;6.146;2022-11-20T07:03:14;101188.97;;;-6.50;100.00
31538;BME280;18147;51.952;6.146;2022-11-20T07:05:39;101190.72;;;-6.51;100.00
31538;BME280;18147;51.952;6.146;2022-11-20T07:08:05;101189.78;;;-6.56;100.00
31538;BME280;18147;51.952;6.146;2022-11-20T07:10:31;101188.00;;;-6.60;100.00
31538;BME280;18147;51.952;6.146;2022-11-20T07:12:57;101179.31;;;-6.64;100.00
31538;BME280;18147;51.952;6.146;2022-11-20T07:15:24;101179.34;;;-6.61;100.00
31538;BME280;18147;51.952;6.146;2022-11-20T07:17:50;101181.03;;;-6.66;100.00
31538;BME280;18147;51.952;6.146;2022-11-20T07:20:16;101183.72;;;-6.57;100.00
31538;BME280;18147;51.952;6.146;2022-11-20T07:22:41;101179.47;;;-6.50;100.00
31538;BME280;18147;51.952;6.146;2022-11-20T07:25:08;101174.34;;;-6.47;100.00
31538;BME280;18147;51.952;6.146;2022-11-20T07:27:33;101176.88;;;-6.52;100.00
31538;BME280;18147;51.952;6.146;2022-11-20T07:29:59;101174.47;;;-6.33;100.00
31538;BME280;18147;51.952;6.146;2022-11-20T07:32:24;101175.16;;;-6.49;100.00
31538;BME280;18147;51.952;6.146;2022-11-20T07:34:50;101175.97;;;-6.54;100.00
31538;BME280;18147;51.952;6.146;2022-11-20T07:37:16;101167.47;;;-6.42;100.00
31538;BME280;18147;51.952;6.146;2022-11-20T07:39:41;101163.38;;;-6.21;100.00
31538;BME280;18147;51.952;6.146;2022-11-20T07:42:07;101161.78;;;-6.07;100.00
31538;BME280;18147;51.952;6.146;2022-11-20T07:44:36;101162.75;;;-5.88;100.00
31538;BME280;18147;51.952;6.146;2022-11-20T07:47:01;101166.22;;;-5.91;100.00
31538;BME280;18147;51.952;6.146;2022-11-20T07:49:27;101166.25;;;-5.86;100.00
31538;BME280;18147;51.952;6.146;2022-11-20T07:51:53;101164.63;;;-5.74;100.00
31538;BME280;18147;51.952;6.146;2022-11-20T07:54:19;101163.84;;;-5.63;100.00
31538;BME280;18147;51.952;6.146;2022-11-20T07:56:45;101162.09;;;-5.66;100.00
31538;BME280;18147;51.952;6.146;2022-11-20T07:59:11;101165.72;;;-5.45;100.00
31538;BME280;18147;51.952;6.146;2022-11-20T08:01:41;101162.25;;;-5.46;100.00
31538;BME280;18147;51.952;6.146;2022-11-20T08:04:06;101154.53;;;-5.37;100.00
31538;BME280;18147;51.952;6.146;2022-11-20T08:06:32;101157.06;;;-5.44;100.00
31538;BME280;18147;51.952;6.146;2022-11-20T08:08:58;101155.44;;;-5.26;100.00
31538;BME280;18147;51.952;6.146;2022-11-20T08:11:23;101151.19;;;-5.13;100.00
31538;BME280;18147;51.952;6.146;2022-11-20T08:14:10;101153.03;;;-4.95;100.00
31538;BME280;18147;51.952;6.146;2022-11-20T08:16:46;101140.94;;;-4.84;100.00
31538;BME280;18147;51.952;6.146;2022-11-20T08:19:13;101149.66;;;-4.68;100.00
31538;BME280;18147;51.952;6.146;2022-11-20T08:21:39;101147.97;;;-4.60;100.00
31538;BME280;18147;51.952;6.146;2022-11-20T08:24:05;101144.53;;;-4.44;100.00
31538;BME280;18147;51.952;6.146;2022-11-20T08:26:31;101152.38;;;-4.34;100.00
31538;BME280;18147;51.952;6.146;2022-11-20T08:28:57;101156.75;;;-4.26;100.00
31538;BME280;18147;51.952;6.146;2022-11-20T08:31:27;101155.03;;;-4.14;100.00
31538;BME280;18147;51.952;6.146;2022-11-20T08:33:53;101153.31;;;-4.06;100.00
31538;BME280;18147;51.952;6.146;2022-11-20T08:36:20;101148.09;;;-3.89;100.00
31538;BME280;18147;51.952;6.146;2022-11-20T08:38:50;101146.38;;;-3.74;100.00
31538;BME280;18147;51.952;6.146;2022-11-20T08:41:16;101135.06;;;-3.53;100.00
31538;BME280;18147;51.952;6.146;2022-11-20T08:44:04;101140.25;;;-3.47;100.00
31538;BME280;18147;51.952;6.146;2022-11-20T08:46:37;101127.22;;;-3.34;100.00
31538;BME280;18147;51.952;6.146;2022-11-20T08:49:04;101131.53;;;-3.10;100.00
31538;BME280;18147;51.952;6.146;2022-11-20T08:51:29;101140.19;;;-3.12;100.00
31538;BME280;18147;51.952;6.146;2022-11-20T08:53:55;101134.06;;;-2.91;100.00
31538;BME280;18147;51.952;6.146;2022-11-20T08:56:20;101128.84;;;-3.01;100.00
31538;BME280;18147;51.952;6.146;2022-11-20T08:58:46;101123.66;;;-2.95;100.00
31538;BME280;18147;51.952;6.146;2022-11-20T09:01:11;101121.94;;;-3.05;100.00
31538;BME280;18147;51.952;6.146;2022-11-20T09:03:37;101118.44;;;-2.95;100.00
31538;BME280;18147;51.952;6.146;2022-11-20T09:06:05;101114.09;;;-3.04;100.00
31538;BME280;18147;51.952;6.146;2022-11-20T09:08:32;101126.28;;;-3.06;100.00
31538;BME280;18147;51.952;6.146;2022-11-20T09:10:58;101121.03;;;-2.95;100.00
31538;BME280;18147;51.952;6.146;2022-11-20T09:13:25;101107.06;;;-2.87;100.00
31538;BME280;18147;51.952;6.146;2022-11-20T09:15:55;101103.53;;;-2.73;100.00
31538;BME280;18147;51.952;6.146;2022-11-20T09:18:21;101108.63;;;-2.46;100.00
31538;BME280;18147;51.952;6.146;2022-11-20T09:20:47;101103.44;;;-2.50;100.00
31538;BME280;18147;51.952;6.146;2022-11-20T09:23:13;101105.91;;;-2.29;100.00
31538;BME280;18147;51.952;6.146;2022-11-20T09:25:38;101098.81;;;-2.10;100.00
31538;BME280;18147;51.952;6.146;2022-11-20T09:28:04;101096.06;;;-1.96;100.00
31538;BME280;18147;51.952;6.146;2022-11-20T09:30:30;101096.94;;;-1.94;100.00
31538;BME280;18147;51.952;6.146;2022-11-20T09:32:56;101090.66;;;-1.73;100.00
31538;BME280;18147;51.952;6.146;2022-11-20T09:35:22;101086.03;;;-1.47;100.00
31538;BME280;18147;51.952;6.146;2022-11-20T09:37:47;101078.00;;;-1.27;100.00
31538;BME280;18147;51.952;6.146;2022-11-20T09:40:31;101080.25;;;-0.96;100.00
31538;BME280;18147;51.952;6.146;2022-11-20T09:48:53;101085.06;;;-0.63;100.00
31538;BME280;18147;51.952;6.146;2022-11-20T09:51:32;101083.00;;;-0.39;100.00
31538;BME280;18147;51.952;6.146;2022-11-20T09:54:22;101083.69;;;-0.28;100.00
31538;BME280;18147;51.952;6.146;2022-11-20T09:56:56;101083.00;;;-0.39;100.00
31538;BME280;18147;51.952;6.146;2022-11-20T09:59:29;101076.09;;;-0.45;100.00
31538;BME280;18147;51.952;6.146;2022-11-20T10:01:57;101075.78;;;-0.25;100.00
31538;BME280;18147;51.952;6.146;2022-11-20T10:04:24;101064.72;;;-0.44;100.00
31538;BME280;18147;51.952;6.146;2022-11-20T10:07:04;101067.03;;;-0.26;100.00
31538;BME280;18147;51.952;6.146;2022-11-20T10:09:35;101067.66;;;-0.08;100.00
31538;BME280;18147;51.952;6.146;2022-11-20T10:12:17;101062.50;;;-0.13;100.00
31538;BME280;18147;51.952;6.146;2022-11-20T10:23:35;101040.56;;;0.42;100.00
31538;BME280;18147;51.952;6.146;2022-11-20T10:26:31;101036.34;;;0.35;100.00
31538;BME280;18147;51.952;6.146;2022-11-20T10:29:12;101033.88;;;0.24;100.00
31538;BME280;18147;51.952;6.146;2022-11-20T10:31:51;101038.88;;;0.38;100.00
31538;BME280;18147;51.952;6.146;2022-11-20T10:34:23;101027.38;;;0.47;100.00
31538;BME280;18147;51.952;6.146;2022-11-20T10:36:55;101026.81;;;0.74;100.00
31538;BME280;18147;51.952;6.146;2022-11-20T10:42:34;101018.88;;;1.19;100.00
31538;BME280;18147;51.952;6.146;2022-11-20T10:45:16;101009.72;;;0.98;100.00
31538;BME280;18147;51.952;6.146;2022-11-20T10:47:45;101005.84;;;1.16;100.00
31538;BME280;18147;51.952;6.146;2022-11-20T10:50:15;101001.59;;;1.11;100.00
31538;BME280;18147;51.952;6.146;2022-11-20T10:55:27;101008.47;;;1.53;100.00
31538;BME280;18147;51.952;6.146;2022-11-20T10:58:19;100999.97;;;1.42;100.00
31538;BME280;18147;51.952;6.146;2022-11-20T11:00:47;101005.06;;;1.11;100.00
31538;BME280;18147;51.952;6.146;2022-11-20T11:03:29;101001.66;;;0.64;100.00
31538;BME280;18147;51.952;6.146;2022-11-20T11:06:03;101006.03;;;0.65;100.00
31538;BME280;18147;51.952;6.146;2022-11-20T11:08:36;101001.56;;;0.70;100.00
31538;BME280;18147;51.952;6.146;2022-11-20T11:11:18;100993.97;;;0.55;100.00
31538;BME280;18147;51.952;6.146;2022-11-20T11:13:45;100976.78;;;0.40;100.00
31538;BME280;18147;51.952;6.146;2022-11-20T11:16:25;100983.75;;;0.41;100.00
31538;BME280;18147;51.952;6.146;2022-11-20T11:18:51;100984.44;;;0.51;100.00
31538;BME280;18147;51.952;6.146;2022-11-20T11:21:24;100986.38;;;0.41;100.00
31538;BME280;18147;51.952;6.146;2022-11-20T11:23:57;100982.78;;;0.47;100.00
31538;BME280;18147;51.952;6.146;2022-11-20T11:26:23;100967.69;;;0.58;100.00
31538;BME280;18147;51.952;6.146;2022-11-20T11:29:03;100964.44;;;0.87;100.00
31538;BME280;18147;51.952;6.146;2022-11-20T11:31:33;100969.16;;;0.71;100.00
31538;BME280;18147;51.952;6.146;2022-11-20T11:34:14;100955.09;;;0.75;100.00
31538;BME280;18147;51.952;6.146;2022-11-20T11:36:41;100952.31;;;0.82;100.00
31538;BME280;18147;51.952;6.146;2022-11-20T11:39:27;100944.03;;;1.00;100.00
31538;BME280;18147;51.952;6.146;2022-11-20T11:41:54;100941.28;;;1.06;100.00
31538;BME280;18147;51.952;6.146;2022-11-20T11:44:28;100941.03;;;1.17;100.00
31538;BME280;18147;51.952;6.146;2022-11-20T11:47:29;100934.03;;;1.17;100.00
31538;BME280;18147;51.952;6.146;2022-11-20T11:58:06;100917.53;;;1.48;100.00
31538;BME280;18147;51.952;6.146;2022-11-20T12:00:33;100903.31;;;1.57;100.00
31538;BME280;18147;51.952;6.146;2022-11-20T12:03:08;100903.09;;;1.64;100.00
31538;BME280;18147;51.952;6.146;2022-11-20T12:05:43;100896.94;;;1.65;100.00
31538;BME280;18147;51.952;6.146;2022-11-20T12:08:38;100882.41;;;1.50;100.00
31538;BME280;18147;51.952;6.146;2022-11-20T12:13:54;100871.94;;;1.49;100.00
31538;BME280;18147;51.952;6.146;2022-11-20T12:16:24;100868.69;;;1.41;100.00
31538;BME280;18147;51.952;6.146;2022-11-20T12:18:51;100870.50;;;1.37;100.00
31538;BME280;18147;51.952;6.146;2022-11-20T12:21:31;100869.47;;;1.43;100.00
31538;BME280;18147;51.952;6.146;2022-11-20T12:29:58;100857.13;;;1.12;100.00
31538;BME280;18147;51.952;6.146;2022-11-20T12:32:48;100840.78;;;0.99;100.00
31538;BME280;18147;51.952;6.146;2022-11-20T12:35:43;100847.00;;;0.95;100.00
31538;BME280;18147;51.952;6.146;2022-11-20T12:38:45;100865.53;;;0.89;100.00
31538;BME280;18147;51.952;6.146;2022-11-20T12:47:50;100821.47;;;1.02;100.00
31538;BME280;18147;51.952;6.146;2022-11-20T12:53:22;100811.78;;;1.06;100.00
31538;BME280;18147;51.952;6.146;2022-11-20T12:58:47;100800.25;;;1.11;100.00
31538;BME280;18147;51.952;6.146;2022-11-20T13:01:29;100789.66;;;1.14;100.00
31538;BME280;18147;51.952;6.146;2022-11-20T13:06:43;100786.97;;;1.17;100.00
31538;BME280;18147;51.952;6.146;2022-11-20T13:09:10;100795.47;;;1.27;100.00
31538;BME280;18147;51.952;6.146;2022-11-20T13:15:04;100787.91;;;1.47;100.00
31538;BME280;18147;51.952;6.146;2022-11-20T13:17:43;100787.38;;;1.67;100.00
31538;BME280;18147;51.952;6.146;2022-11-20T13:20:15;100785.69;;;1.65;100.00
31538;BME280;18147;51.952;6.146;2022-11-20T13:22:52;100782.31;;;1.61;100.00
31538;BME280;18147;51.952;6.146;2022-11-20T13:25:34;100779.44;;;1.69;100.00
31538;BME280;18147;51.952;6.146;2022-11-20T13:30:37;100778.47;;;1.73;100.00
31538;BME280;18147;51.952;6.146;2022-11-20T13:33:27;100777.78;;;1.65;100.00
31538;BME280;18147;51.952;6.146;2022-11-20T13:38:27;100760.13;;;1.71;100.00
31538;BME280;18147;51.952;6.146;2022-11-20T13:43:41;100742.16;;;1.54;100.00
31538;BME280;18147;51.952;6.146;2022-11-20T13:46:11;100719.50;;;1.50;100.00
31538;BME280;18147;51.952;6.146;2022-11-20T13:48:41;100709.16;;;1.46;100.00
31538;BME280;18147;51.952;6.146;2022-11-20T13:51:35;100697.91;;;1.41;100.00
31538;BME280;18147;51.952;6.146;2022-11-20T14:01:57;100700.63;;;1.38;100.00
31538;BME280;18147;51.952;6.146;2022-11-20T14:04:32;100690.09;;;1.38;100.00
31538;BME280;18147;51.952;6.146;2022-11-20T14:06:59;100693.66;;;1.37;100.00
31538;BME280;18147;51.952;6.146;2022-11-20T14:09:30;100697.75;;;1.45;100.00
31538;BME280;18147;51.952;6.146;2022-11-20T14:11:56;100677.63;;;1.46;100.00
31538;BME280;18147;51.952;6.146;2022-11-20T14:14:27;100662.72;;;1.46;100.00
31538;BME280;18147;51.952;6.146;2022-11-20T14:17:08;100644.34;;;1.45;100.00